createdAt,value
2022-10-07T00:02:09.356Z,102860.72
2022-10-07T00:04:37.085Z,102867.38
2022-10-07T00:07:04.002Z,102858.84
2022-10-07T00:09:30.790Z,102860.47
2022-10-07T00:11:57.253Z,102858.50
2022-10-07T00:14:23.687Z,102853.88
2022-10-07T00:16:50.196Z,102855.06
2022-10-07T00:19:16.695Z,102853.56
2022-10-07T00:21:43.146Z,102852.41
2022-10-07T00:24:11.191Z,102850.44
2022-10-07T00:26:38.054Z,102841.19
2022-10-07T00:29:06.634Z,102839.66
2022-10-07T00:31:35.762Z,102843.13
2022-10-07T00:34:04.085Z,102854.44
2022-10-07T00:36:33.650Z,102838.53
2022-10-07T00:39:11.925Z,102836.63
2022-10-07T00:41:50.199Z,102833.13
2022-10-07T00:44:38.230Z,102828.56
2022-10-07T00:47:28.253Z,102827.00
2022-10-07T00:50:02.161Z,102822.72
2022-10-07T00:52:33.610Z,102821.94
2022-10-07T00:55:05.865Z,102818.44
2022-10-07T00:57:33.355Z,102814.59
2022-10-07T01:00:02.009Z,102812.75
2022-10-07T01:02:28.731Z,102808.84
2022-10-07T01:04:58.918Z,102808.84
2022-10-07T01:07:26.134Z,102806.94
2022-10-07T01:09:53.535Z,102810.03
2022-10-07T01:12:27.919Z,102809.69
2022-10-07T01:15:17.603Z,102805.84
2022-10-07T01:17:47.451Z,102799.59
2022-10-07T01:20:40.376Z,102795.75
2022-10-07T01:23:24.984Z,102790.72
2022-10-07T01:26:04.193Z,102790.00
2022-10-07T01:28:41.329Z,102782.97
2022-10-07T01:31:11.473Z,102781.44
2022-10-07T01:33:40.438Z,102780.25
2022-10-07T01:36:10.911Z,102780.34
2022-10-07T01:38:41.733Z,102777.63
2022-10-07T01:41:15.161Z,102769.81
2022-10-07T01:43:43.046Z,102769.06
2022-10-07T01:46:14.153Z,102765.56
2022-10-07T01:48:40.582Z,102750.72
2022-10-07T01:51:08.319Z,102743.75
2022-10-07T01:54:08.994Z,102745.03
2022-10-07T01:56:41.152Z,102738.81
2022-10-07T01:59:25.878Z,102733.00
2022-10-07T02:02:18.227Z,102718.63
2022-10-07T02:04:58.716Z,102726.44
2022-10-07T02:07:40.345Z,102714.00
2022-10-07T02:10:24.053Z,102717.19
2022-10-07T02:13:25.448Z,102716.38
2022-10-07T02:16:01.849Z,102708.63
2022-10-07T02:18:31.573Z,102718.00
2022-10-07T02:20:58.202Z,102707.84
2022-10-07T02:23:25.609Z,102711.78
2022-10-07T02:25:54.704Z,102705.66
2022-10-07T02:28:23.087Z,102695.81
2022-10-07T02:30:53.551Z,102699.75
2022-10-07T02:33:24.646Z,102702.91
2022-10-07T02:36:16.793Z,102693.22
2022-10-07T02:38:44.319Z,102700.19
2022-10-07T02:41:32.081Z,102693.22
2022-10-07T02:44:06.395Z,102694.38
2022-10-07T02:46:38.730Z,102687.75
2022-10-07T02:49:09.357Z,102684.69
2022-10-07T02:51:43.763Z,102679.31
2022-10-07T02:54:10.845Z,102682.38
2022-10-07T02:56:39.207Z,102681.19
2022-10-07T02:59:08.729Z,102671.88
2022-10-07T03:01:40.614Z,102673.09
2022-10-07T03:04:07.183Z,102669.59
2022-10-07T03:06:35.863Z,102672.31
2022-10-07T03:09:02.598Z,102668.41
2022-10-07T03:11:29.109Z,102666.84
2022-10-07T03:13:55.586Z,102674.69
2022-10-07T03:16:24.863Z,102673.19
2022-10-07T03:18:51.879Z,102672.81
2022-10-07T03:21:18.376Z,102669.75
2022-10-07T03:23:44.925Z,102675.53
2022-10-07T03:26:11.380Z,102665.81
2022-10-07T03:28:37.979Z,102666.59
2022-10-07T03:31:10.352Z,102667.44
2022-10-07T03:33:37.395Z,102662.78
2022-10-07T03:36:05.817Z,102662.78
2022-10-07T03:38:33.069Z,102661.97
2022-10-07T03:41:01.912Z,102661.22
2022-10-07T03:43:28.863Z,102658.47
2022-10-07T03:45:57.062Z,102651.94
2022-10-07T03:48:23.500Z,102651.94
2022-10-07T03:50:54.804Z,102651.94
2022-10-07T03:53:21.520Z,102643.41
2022-10-07T03:55:47.924Z,102630.53
2022-10-07T03:58:14.471Z,102631.41
2022-10-07T04:00:41.300Z,102631.00
2022-10-07T04:03:09.011Z,102623.22
2022-10-07T04:05:36.602Z,102627.91
2022-10-07T04:08:07.469Z,102627.16
2022-10-07T04:10:35.327Z,102620.91
2022-10-07T04:13:01.732Z,102624.06
2022-10-07T04:15:28.300Z,102619.81
2022-10-07T04:18:00.028Z,102623.72
2022-10-07T04:20:26.553Z,102619.81
2022-10-07T04:22:52.980Z,102623.00
2022-10-07T04:25:34.607Z,102619.50
2022-10-07T04:28:06.899Z,102631.56
2022-10-07T04:30:39.413Z,102622.28
2022-10-07T04:33:07.027Z,102621.91
2022-10-07T04:35:37.516Z,102621.91
2022-10-07T04:38:04.697Z,102616.47
2022-10-07T04:40:31.154Z,102613.75
2022-10-07T04:43:15.923Z,102616.88
2022-10-07T04:45:42.339Z,102612.22
2022-10-07T04:48:08.789Z,102616.22
2022-10-07T04:50:38.733Z,102613.84
2022-10-07T04:53:09.579Z,102613.50
2022-10-07T04:55:43.510Z,102604.09
2022-10-07T04:58:13.594Z,102606.81
2022-10-07T05:00:45.933Z,102600.28
2022-10-07T05:03:13.891Z,102601.47
2022-10-07T05:05:44.605Z,102603.03
2022-10-07T05:08:12.681Z,102597.97
2022-10-07T05:10:40.102Z,102595.69
2022-10-07T05:13:09.417Z,102597.56
2022-10-07T05:15:35.799Z,102591.78
2022-10-07T05:18:02.708Z,102595.25
2022-10-07T05:20:29.162Z,102590.66
2022-10-07T05:22:55.657Z,102598.06
2022-10-07T05:25:22.181Z,102589.88
2022-10-07T05:27:54.022Z,102588.69
2022-10-07T05:30:20.494Z,102586.81
2022-10-07T05:32:46.995Z,102585.28
2022-10-07T05:35:13.950Z,102586.13
2022-10-07T05:37:40.408Z,102589.19
2022-10-07T05:40:07.167Z,102587.69
2022-10-07T05:42:33.616Z,102590.81
2022-10-07T05:44:59.998Z,102586.91
2022-10-07T05:47:27.012Z,102586.91
2022-10-07T05:49:57.096Z,102582.25
2022-10-07T05:52:23.518Z,102588.84
2022-10-07T05:54:49.970Z,102586.13
2022-10-07T05:57:16.481Z,102583.81
2022-10-07T05:59:44.118Z,102583.03
2022-10-07T06:02:21.834Z,102589.72
2022-10-07T06:04:48.933Z,102586.22
2022-10-07T06:07:20.517Z,102593.63
2022-10-07T06:10:07.044Z,102587.06
2022-10-07T06:12:51.748Z,102593.63
2022-10-07T06:15:18.301Z,102587.06
2022-10-07T06:17:45.509Z,102592.50
2022-10-07T06:20:14.938Z,102584.00
2022-10-07T06:22:42.897Z,102588.25
2022-10-07T06:25:10.519Z,102581.25
2022-10-07T06:30:13.972Z,102570.03
2022-10-07T06:32:40.371Z,102569.25
2022-10-07T06:35:07.107Z,102573.84
2022-10-07T06:37:33.548Z,102575.41
2022-10-07T06:39:59.981Z,102568.31
2022-10-07T06:42:26.551Z,102573.69
2022-10-07T06:44:53.919Z,102574.06
2022-10-07T06:47:21.477Z,102568.53
2022-10-07T06:49:48.028Z,102574.31
2022-10-07T06:52:14.476Z,102576.63
2022-10-07T06:54:40.863Z,102573.81
2022-10-07T06:57:26.338Z,102571.03
2022-10-07T06:59:55.017Z,102574.06
2022-10-07T07:02:21.534Z,102572.47
2022-10-07T07:04:48.047Z,102558.41
2022-10-07T07:07:14.530Z,102564.22
2022-10-07T07:09:40.972Z,102567.28
2022-10-07T07:12:07.354Z,102560.63
2022-10-07T07:14:35.759Z,102552.78
2022-10-07T07:17:02.305Z,102563.28
2022-10-07T07:19:28.945Z,102562.88
2022-10-07T07:21:55.434Z,102565.94
2022-10-07T07:24:21.954Z,102563.56
2022-10-07T07:26:48.650Z,102554.91
2022-10-07T07:29:16.461Z,102554.16
2022-10-07T07:31:43.104Z,102558.78
2022-10-07T07:34:12.238Z,102555.59
2022-10-07T07:36:44.128Z,102558.72
2022-10-07T07:39:13.082Z,102550.09
2022-10-07T07:41:42.181Z,102548.47
2022-10-07T07:44:13.858Z,102545.66
2022-10-07T07:46:43.248Z,102542.50
2022-10-07T07:49:12.068Z,102540.44
2022-10-07T07:51:39.802Z,102544.63
2022-10-07T07:54:06.635Z,102534.06
2022-10-07T07:56:33.217Z,102528.19
2022-10-07T07:59:01.245Z,102536.59
2022-10-07T08:01:32.044Z,102526.72
2022-10-07T08:04:00.842Z,102524.22
2022-10-07T08:06:28.326Z,102515.53
2022-10-07T08:08:59.398Z,102508.34
2022-10-07T08:11:26.817Z,102502.34
2022-10-07T08:13:55.260Z,102506.88
2022-10-07T08:16:23.837Z,102500.13
2022-10-07T08:18:51.661Z,102493.78
2022-10-07T08:21:20.896Z,102501.44
2022-10-07T08:23:48.093Z,102497.84
2022-10-07T08:26:15.008Z,102500.06
2022-10-07T08:28:41.546Z,102494.81
2022-10-07T08:31:11.661Z,102491.22
2022-10-07T08:33:40.652Z,102497.34
2022-10-07T08:36:10.855Z,102489.81
2022-10-07T08:38:39.641Z,102488.94
2022-10-07T08:41:09.187Z,102485.69
2022-10-07T08:43:47.963Z,102482.84
2022-10-07T08:46:17.756Z,102483.84
2022-10-07T08:48:52.273Z,102480.22
2022-10-07T08:51:41.808Z,102474.63
2022-10-07T08:54:13.721Z,102479.09
2022-10-07T08:56:41.330Z,102475.50
2022-10-07T08:59:25.011Z,102469.50
2022-10-07T09:02:13.900Z,102462.72
2022-10-07T09:04:47.781Z,102468.09
2022-10-07T09:07:23.135Z,102465.25
2022-10-07T09:09:56.903Z,102462.06
2022-10-07T09:12:30.653Z,102458.00
2022-10-07T09:14:59.425Z,102445.78
2022-10-07T09:17:35.481Z,102446.06
2022-10-07T09:20:06.845Z,102441.69
2022-10-07T09:22:39.089Z,102434.47
2022-10-07T09:25:11.656Z,102431.63
2022-10-07T09:27:40.693Z,102427.22
2022-10-07T09:30:07.709Z,102425.56
2022-10-07T09:32:39.699Z,102426.22
2022-10-07T09:35:06.401Z,102419.88
2022-10-07T09:37:32.961Z,102413.50
2022-10-07T09:40:30.157Z,102409.91
2022-10-07T09:42:57.688Z,102410.53
2022-10-07T09:45:33.134Z,102394.47
2022-10-07T09:48:07.160Z,102393.88
2022-10-07T09:50:41.078Z,102392.97
2022-10-07T09:53:21.098Z,102390.56
2022-10-07T09:55:48.649Z,102389.97
2022-10-07T09:58:33.240Z,102380.59
2022-10-07T10:01:01.818Z,102378.47
2022-10-07T10:03:33.550Z,102377.59
2022-10-07T10:06:02.336Z,102378.22
2022-10-07T10:08:32.750Z,102376.56
2022-10-07T10:11:21.622Z,102367.44
2022-10-07T10:13:50.550Z,102362.63
2022-10-07T10:16:28.863Z,102366.44
2022-10-07T10:18:58.774Z,102371.75
2022-10-07T10:21:40.701Z,102356.44
2022-10-07T10:24:12.531Z,102353.59
2022-10-07T10:26:52.007Z,102344.47
2022-10-07T10:29:25.618Z,102347.06
2022-10-07T10:32:00.987Z,102352.41
2022-10-07T10:34:52.115Z,102346.00
2022-10-07T10:37:21.723Z,102334.16
2022-10-07T10:40:29.655Z,102344.22
2022-10-07T10:43:16.424Z,102335.88
2022-10-07T10:46:03.179Z,102335.72
2022-10-07T10:48:53.883Z,102324.31
2022-10-07T10:51:42.491Z,102324.91
2022-10-07T10:54:24.551Z,102321.28
2022-10-07T10:57:14.932Z,102314.59
2022-10-07T11:00:12.644Z,102305.94
2022-10-07T11:02:39.143Z,102307.75
2022-10-07T11:05:23.806Z,102297.13
2022-10-07T11:08:02.091Z,102293.94
2022-10-07T11:10:49.080Z,102291.50
2022-10-07T11:13:36.888Z,102285.88
2022-10-07T11:16:12.353Z,102283.00
2022-10-07T11:18:46.265Z,102273.09
2022-10-07T11:21:22.821Z,102275.38
2022-10-07T11:24:15.257Z,102268.22
2022-10-07T11:26:57.443Z,102266.56
2022-10-07T11:29:33.659Z,102253.13
2022-10-07T11:32:14.097Z,102247.25
2022-10-07T11:34:53.728Z,102238.88
2022-10-07T11:38:13.085Z,102239.91
2022-10-07T11:41:00.314Z,102230.03
2022-10-07T11:43:39.033Z,102233.84
2022-10-07T11:46:32.443Z,102232.59
2022-10-07T11:49:05.072Z,102222.72
2022-10-07T11:51:36.849Z,102220.28
2022-10-07T11:54:06.477Z,102215.84
2022-10-07T11:56:49.223Z,102221.34
2022-10-07T11:59:37.291Z,102208.84
2022-10-07T12:02:04.651Z,102204.59
2022-10-07T12:04:31.061Z,102199.13
2022-10-07T12:07:34.954Z,102208.84
2022-10-07T12:10:04.055Z,102204.44
2022-10-07T12:12:42.984Z,102195.47
2022-10-07T12:15:30.633Z,102183.28
2022-10-07T12:18:05.946Z,102192.56
2022-10-07T12:20:46.190Z,102183.88
2022-10-07T12:23:28.293Z,102176.41
2022-10-07T12:26:03.246Z,102180.69
2022-10-07T12:31:23.462Z,102175.97
2022-10-07T12:34:06.263Z,102164.22
2022-10-07T12:36:33.270Z,102172.00
2022-10-07T12:38:59.675Z,102163.78
2022-10-07T12:41:27.404Z,102160.56
2022-10-07T12:44:12.590Z,102159.81
2022-10-07T12:46:47.700Z,102146.88
2022-10-07T12:49:36.554Z,102146.13
2022-10-07T12:52:16.004Z,102145.66
2022-10-07T12:54:48.295Z,102147.63
2022-10-07T12:57:21.333Z,102157.06
2022-10-07T13:00:02.994Z,102146.59
2022-10-07T13:03:08.036Z,102134.88
2022-10-07T13:05:56.283Z,102131.81
2022-10-07T13:08:53.856Z,102125.56
2022-10-07T13:11:32.402Z,102116.63
2022-10-07T13:14:02.407Z,102114.34
2022-10-07T13:16:43.775Z,102110.84
2022-10-07T13:19:19.105Z,102114.03
2022-10-07T13:21:48.508Z,102117.53
2022-10-07T13:24:20.698Z,102116.78
2022-10-07T13:26:47.318Z,102107.78
2022-10-07T13:29:25.756Z,102099.56
2022-10-07T13:32:06.617Z,102096.06
2022-10-07T13:34:34.322Z,102092.28
2022-10-07T13:37:00.843Z,102089.53
2022-10-07T13:39:27.883Z,102087.25
2022-10-07T13:41:57.036Z,102098.97
2022-10-07T13:44:26.008Z,102095.47
2022-10-07T13:47:01.588Z,102093.97
2022-10-07T13:49:38.148Z,102087.41
2022-10-07T13:52:20.342Z,102079.69
2022-10-07T13:54:51.742Z,102078.63
2022-10-07T13:57:21.388Z,102078.31
2022-10-07T13:59:49.260Z,102076.78
2022-10-07T14:02:16.227Z,102059.31
2022-10-07T14:04:57.732Z,102068.28
2022-10-07T14:07:27.181Z,102058.25
2022-10-07T14:09:59.444Z,102055.69
2022-10-07T14:12:33.353Z,102054.16
2022-10-07T14:15:03.211Z,102049.16
2022-10-07T14:17:51.691Z,102050.84
2022-10-07T14:20:30.185Z,102041.53
2022-10-07T14:22:58.934Z,102037.00
2022-10-07T14:25:28.991Z,102031.69
2022-10-07T14:28:09.054Z,102027.88
2022-10-07T14:30:57.120Z,102021.38
2022-10-07T14:34:09.826Z,102016.06
2022-10-07T14:36:36.333Z,102013.00
2022-10-07T14:39:22.932Z,102008.94
2022-10-07T14:41:49.723Z,102007.38
2022-10-07T14:44:18.241Z,102001.34
2022-10-07T14:46:44.680Z,101998.75
2022-10-07T14:49:11.255Z,102000.44
2022-10-07T14:51:37.717Z,101990.84
2022-10-07T14:54:08.996Z,101986.31
2022-10-07T14:56:39.014Z,101993.00
2022-10-07T14:59:13.675Z,101982.25
2022-10-07T15:01:40.177Z,101976.16
2022-10-07T15:04:06.921Z,101986.75
2022-10-07T15:06:34.664Z,101967.34
2022-10-07T15:09:01.127Z,101961.25
2022-10-07T15:11:29.089Z,101964.16
2022-10-07T15:13:55.485Z,101963.88
2022-10-07T15:16:27.378Z,101962.03
2022-10-07T15:18:54.501Z,101967.97
2022-10-07T15:21:23.942Z,101964.16
2022-10-07T15:23:53.966Z,101965.88
2022-10-07T15:26:23.988Z,101967.50
2022-10-07T15:28:55.206Z,101961.75
2022-10-07T15:31:27.099Z,101956.75
2022-10-07T15:33:57.799Z,101953.69
2022-10-07T15:36:29.231Z,101951.13
2022-10-07T15:38:58.920Z,101949.13
2022-10-07T15:41:31.927Z,101948.56
2022-10-07T15:43:59.843Z,101942.78
2022-10-07T15:46:26.912Z,101947.19
2022-10-07T15:48:57.058Z,101935.94
2022-10-07T15:51:25.369Z,101937.63
2022-10-07T15:53:52.934Z,101934.56
2022-10-07T15:56:19.647Z,101939.31
2022-10-07T15:58:46.145Z,101934.72
2022-10-07T16:01:12.807Z,101930.47
2022-10-07T16:03:44.994Z,101930.47
2022-10-07T16:06:25.251Z,101935.34
2022-10-07T16:08:54.680Z,101929.88
2022-10-07T16:11:21.837Z,101930.31
2022-10-07T16:13:48.788Z,101926.09
2022-10-07T16:16:20.540Z,101918.03
2022-10-07T16:18:49.272Z,101931.84
2022-10-07T16:21:24.599Z,101925.63
2022-10-07T16:23:54.727Z,101920.59
2022-10-07T16:26:24.437Z,101918.34
2022-10-07T16:29:10.759Z,101925.00
2022-10-07T16:31:42.469Z,101922.72
2022-10-07T16:34:11.295Z,101925.16
2022-10-07T16:36:42.140Z,101927.13
2022-10-07T16:39:11.403Z,101926.53
2022-10-07T16:41:41.661Z,101923.47
2022-10-07T16:44:08.528Z,101921.97
2022-10-07T16:46:35.011Z,101919.22
2022-10-07T16:49:03.445Z,101913.16
2022-10-07T16:51:33.234Z,101912.88
2022-10-07T16:54:03.337Z,101917.09
2022-10-07T16:56:32.975Z,101917.09
2022-10-07T16:59:02.025Z,101920.59
2022-10-07T17:01:29.520Z,101914.50
2022-10-07T17:03:57.609Z,101919.22
2022-10-07T17:06:25.465Z,101920.44
2022-10-07T17:08:51.937Z,101923.19
2022-10-07T17:11:29.904Z,101916.19
2022-10-07T17:13:57.639Z,101922.09
2022-10-07T17:16:25.735Z,101922.56
2022-10-07T17:18:52.922Z,101915.25
2022-10-07T17:21:20.731Z,101912.25
2022-10-07T17:23:50.552Z,101920.88
2022-10-07T17:26:18.798Z,101920.88
2022-10-07T17:28:46.554Z,101914.63
2022-10-07T17:31:13.755Z,101921.31
2022-10-07T17:33:42.335Z,101919.81
2022-10-07T17:36:11.131Z,101917.53
2022-10-07T17:38:38.757Z,101908.59
2022-10-07T17:41:23.330Z,101909.75
2022-10-07T17:43:51.885Z,101907.78
2022-10-07T17:46:19.984Z,101909.75
2022-10-07T17:48:48.653Z,101911.44
2022-10-07T17:51:16.898Z,101907.22
2022-10-07T17:53:44.940Z,101907.66
2022-10-07T17:56:14.354Z,101900.66
2022-10-07T17:58:42.324Z,101900.97
2022-10-07T18:01:22.650Z,101901.13
2022-10-07T18:03:57.496Z,101900.38
2022-10-07T18:06:29.205Z,101896.09
2022-10-07T18:08:56.074Z,101894.28
2022-10-07T18:11:22.483Z,101902.78
2022-10-07T18:14:08.034Z,101895.81
2022-10-07T18:16:35.514Z,101893.09
2022-10-07T18:19:02.540Z,101896.53
2022-10-07T18:21:31.263Z,101893.81
2022-10-07T18:23:58.065Z,101892.78
2022-10-07T18:26:24.688Z,101890.50
2022-10-07T18:28:51.412Z,101883.97
2022-10-07T18:31:18.566Z,101888.97
2022-10-07T18:33:46.188Z,101885.03
2022-10-07T18:36:16.281Z,101882.75
2022-10-07T18:38:44.460Z,101880.78
2022-10-07T18:41:14.114Z,101872.28
2022-10-07T18:43:41.157Z,101868.34
2022-10-07T18:46:16.429Z,101869.09
2022-10-07T18:48:50.559Z,101857.88
2022-10-07T18:51:17.455Z,101858.63
2022-10-07T18:53:46.631Z,101857.09
2022-10-07T18:56:21.634Z,101853.94
2022-10-07T18:58:51.106Z,101851.19
2022-10-07T19:01:20.174Z,101849.66
2022-10-07T19:03:48.805Z,101845.72
2022-10-07T19:06:18.759Z,101840.28
2022-10-07T19:08:46.053Z,101840.72
2022-10-07T19:11:17.590Z,101839.06
2022-10-07T19:13:48.172Z,101834.81
2022-10-07T19:16:21.715Z,101835.56
2022-10-07T19:18:50.877Z,101829.34
2022-10-07T19:21:19.919Z,101826.31
2022-10-07T19:23:51.104Z,101825.84
2022-10-07T19:26:21.546Z,101825.09
2022-10-07T19:28:49.906Z,101821.31
2022-10-07T19:31:28.019Z,101820.09
2022-10-07T19:34:03.026Z,101832.22
2022-10-07T19:36:31.102Z,101832.53
2022-10-07T19:38:58.426Z,101832.97
2022-10-07T19:41:27.438Z,101826.31
2022-10-07T19:43:54.503Z,101818.13
2022-10-07T19:46:22.895Z,101821.59
2022-10-07T19:48:49.473Z,101815.84
2022-10-07T19:51:19.929Z,101818.25
2022-10-07T19:53:47.497Z,101809.63
2022-10-07T19:56:15.752Z,101818.88
2022-10-07T19:58:47.853Z,101799.47
2022-10-07T20:01:19.331Z,101800.97
2022-10-07T20:03:45.839Z,101789.31
2022-10-07T20:06:13.024Z,101786.28
2022-10-07T20:08:41.904Z,101780.03
2022-10-07T20:11:09.969Z,101785.06
2022-10-07T20:13:37.775Z,101777.31
2022-10-07T20:16:16.206Z,101779.28
2022-10-07T20:18:43.947Z,101776.28
2022-10-07T20:21:22.164Z,101774.28
2022-10-07T20:23:48.740Z,101769.28
2022-10-07T20:26:24.207Z,101761.88
2022-10-07T20:28:52.920Z,101756.81
2022-10-07T20:31:22.118Z,101754.56
2022-10-07T20:33:51.440Z,101757.59
2022-10-07T20:36:20.589Z,101753.06
2022-10-07T20:39:05.290Z,101754.25
2022-10-07T20:41:50.555Z,101751.09
2022-10-07T20:44:17.952Z,101754.72
2022-10-07T20:46:44.535Z,101753.19
2022-10-07T20:49:22.332Z,101757.91
2022-10-07T20:51:53.561Z,101761.84
2022-10-07T20:54:21.611Z,101756.38
2022-10-07T20:56:48.999Z,101752.44
2022-10-07T20:59:15.449Z,101748.66
2022-10-07T21:01:42.714Z,101750.16
2022-10-07T21:04:10.841Z,101742.72
2022-10-07T21:06:37.522Z,101748.34
2022-10-07T21:09:04.563Z,101749.44
2022-10-07T21:11:31.195Z,101740.47
2022-10-07T21:13:58.342Z,101733.47
2022-10-07T21:16:26.536Z,101740.16
2022-10-07T21:18:54.212Z,101738.50
2022-10-07T21:21:21.784Z,101734.69
2022-10-07T21:23:49.207Z,101737.41
2022-10-07T21:26:16.619Z,101735.44
2022-10-07T21:28:43.687Z,101732.28
2022-10-07T21:31:17.451Z,101725.28
2022-10-07T21:33:47.161Z,101718.31
2022-10-07T21:36:24.342Z,101719.06
2022-10-07T21:38:56.305Z,101727.25
2022-10-07T21:41:31.157Z,101721.03
2022-10-07T21:43:58.547Z,101711.34
2022-10-07T21:46:26.892Z,101710.13
2022-10-07T21:48:55.154Z,101715.13
2022-10-07T21:51:22.613Z,101705.13
2022-10-07T21:53:51.038Z,101703.16
2022-10-07T21:56:18.030Z,101694.97
2022-10-07T21:58:46.934Z,101697.72
2022-10-07T22:01:18.144Z,101694.22
2022-10-07T22:03:45.200Z,101694.22
2022-10-07T22:06:14.677Z,101686.03
2022-10-07T22:08:42.903Z,101681.78
2022-10-07T22:11:19.680Z,101679.81
2022-10-07T22:13:53.222Z,101682.81
2022-10-07T22:16:20.052Z,101672.06
2022-10-07T22:18:49.565Z,101669.31
2022-10-07T22:21:28.577Z,101670.09
2022-10-07T22:24:02.842Z,101672.06
2022-10-07T22:26:33.299Z,101663.09
2022-10-07T22:29:00.038Z,101652.19
2022-10-07T22:31:26.838Z,101663.88
2022-10-07T22:33:56.164Z,101653.44
2022-10-07T22:36:23.162Z,101653.44
2022-10-07T22:38:49.924Z,101645.97
2022-10-07T22:41:18.173Z,101646.72
2022-10-07T22:43:46.412Z,101648.25
2022-10-07T22:46:15.901Z,101639.03
2022-10-07T22:48:48.649Z,101636.75
2022-10-07T22:51:16.397Z,101628.56
2022-10-07T22:53:46.517Z,101623.09
2022-10-07T22:56:15.163Z,101621.56
2022-10-07T22:58:43.014Z,101618.84
2022-10-07T23:01:15.266Z,101623.56
2022-10-07T23:03:43.965Z,101627.00
2022-10-07T23:06:12.680Z,101613.38
2022-10-07T23:08:39.826Z,101611.41
2022-10-07T23:11:07.757Z,101617.34
2022-10-07T23:13:36.504Z,101610.38
2022-10-07T23:16:10.134Z,101613.38
2022-10-07T23:18:36.945Z,101604.00
2022-10-07T23:21:09.698Z,101605.66
2022-10-07T23:23:37.140Z,101608.41
2022-10-07T23:26:05.321Z,101607.91
2022-10-07T23:28:33.826Z,101602.19
2022-10-07T23:31:05.050Z,101605.38
2022-10-07T23:33:33.374Z,101602.31
2022-10-07T23:36:05.560Z,101602.06
2022-10-07T23:38:33.491Z,101600.81
2022-10-07T23:41:02.977Z,101596.25
2022-10-07T23:43:33.280Z,101595.22
2022-10-07T23:46:02.110Z,101583.97
2022-10-07T23:48:35.295Z,101585.22
2022-10-07T23:51:03.969Z,101579.00
2022-10-07T23:53:31.372Z,101583.38
2022-10-07T23:55:58.591Z,101581.13
2022-10-07T23:58:27.348Z,101583.09
